sensor_id;sensor_type;location;lat;lon;timestamp;pressure;altitude;pressure_sealevel;temperature;humidity
7832;BME280;3961;42.058;25.586;2023-12-28T00:02:13;101616.31;;;6.00;100.00
7832;BME280;3961;42.058;25.586;2023-12-28T00:04:40;101628.19;;;5.89;100.00
7832;BME280;3961;42.058;25.586;2023-12-28T00:07:05;101623.31;;;5.92;100.00
7832;BME280;3961;42.058;25.586;2023-12-28T00:09:31;101612.16;;;5.78;100.00
7832;BME280;3961;42.058;25.586;2023-12-28T00:11:56;101618.94;;;5.91;100.00
7832;BME280;3961;42.058;25.586;2023-12-28T00:14:22;101621.47;;;5.93;100.00
7832;BME280;3961;42.058;25.586;2023-12-28T00:16:47;101630.22;;;6.05;100.00
7832;BME280;3961;42.058;25.586;2023-12-28T00:19:13;101631.31;;;5.94;100.00
7832;BME280;3961;42.058;25.586;2023-12-28T00:21:38;101634.75;;;5.86;100.00
7832;BME280;3961;42.058;25.586;2023-12-28T00:24:05;101636.91;;;5.83;100.00
7832;BME280;3961;42.058;25.586;2023-12-28T00:26:30;101632.34;;;5.66;100.00
7832;BME280;3961;42.058;25.586;2023-12-28T00:28:56;101634.78;;;5.59;100.00
7832;BME280;3961;42.058;25.586;2023-12-28T00:31:22;101639.03;;;5.34;100.00
7832;BME280;3961;42.058;25.586;2023-12-28T00:33:47;101637.59;;;5.40;100.00
7832;BME280;3961;42.058;25.586;2023-12-28T00:36:14;101634.25;;;5.28;100.00
7832;BME280;3961;42.058;25.586;2023-12-28T00:38:40;101644.03;;;5.57;100.00
7832;BME280;3961;42.058;25.586;2023-12-28T00:41:05;101648.41;;;5.67;100.00
7832;BME280;3961;42.058;25.586;2023-12-28T00:43:31;101660.59;;;5.53;100.00
7832;BME280;3961;42.058;25.586;2023-12-28T00:45:56;101655.13;;;5.63;100.00
7832;BME280;3961;42.058;25.586;2023-12-28T00:48:22;101640.66;;;5.55;100.00
7832;BME280;3961;42.058;25.586;2023-12-28T00:50:47;101646.69;;;5.66;100.00
7832;BME280;3961;42.058;25.586;2023-12-28T00:53:13;101661.13;;;5.30;100.00
7832;BME280;3961;42.058;25.586;2023-12-28T00:55:38;101664.53;;;4.95;100.00
7832;BME280;3961;42.058;25.586;2023-12-28T00:58:04;101679.38;;;4.72;100.00
7832;BME280;3961;42.058;25.586;2023-12-28T01:00:29;101676.84;;;4.60;100.00
7832;BME280;3961;42.058;25.586;2023-12-28T01:02:55;101679.41;;;4.52;100.00
7832;BME280;3961;42.058;25.586;2023-12-28T01:05:20;101684.50;;;4.55;100.00
7832;BME280;3961;42.058;25.586;2023-12-28T01:07:46;101680.97;;;4.55;100.00
7832;BME280;3961;42.058;25.586;2023-12-28T01:10:12;101685.38;;;4.46;100.00
7832;BME280;3961;42.058;25.586;2023-12-28T01:12:37;101676.00;;;4.50;100.00
7832;BME280;3961;42.058;25.586;2023-12-28T01:15:03;101690.91;;;4.74;100.00
7832;BME280;3961;42.058;25.586;2023-12-28T01:17:29;101691.63;;;4.76;100.00
7832;BME280;3961;42.058;25.586;2023-12-28T01:19:55;101680.63;;;4.87;100.00
7832;BME280;3961;42.058;25.586;2023-12-28T01:22:20;101684.47;;;4.84;100.00
7832;BME280;3961;42.058;25.586;2023-12-28T01:24:46;101691.19;;;4.80;100.00
7832;BME280;3961;42.058;25.586;2023-12-28T01:27:12;101686.16;;;4.95;100.00
7832;BME280;3961;42.058;25.586;2023-12-28T01:29:37;101681.88;;;5.02;100.00
7832;BME280;3961;42.058;25.586;2023-12-28T01:32:03;101685.84;;;5.07;100.00
7832;BME280;3961;42.058;25.586;2023-12-28T01:34:29;101690.84;;;4.93;100.00
7832;BME280;3961;42.058;25.586;2023-12-28T01:36:54;101684.59;;;5.02;100.00
7832;BME280;3961;42.058;25.586;2023-12-28T01:39:20;101687.69;;;4.97;100.00
7832;BME280;3961;42.058;25.586;2023-12-28T01:41:45;101689.69;;;5.05;100.00
7832;BME280;3961;42.058;25.586;2023-12-28T01:44:11;101685.00;;;5.07;100.00
7832;BME280;3961;42.058;25.586;2023-12-28T01:46:37;101684.66;;;5.20;100.00
7832;BME280;3961;42.058;25.586;2023-12-28T01:49:04;101684.66;;;5.20;100.00
7832;BME280;3961;42.058;25.586;2023-12-28T01:51:30;101677.84;;;5.16;100.00
7832;BME280;3961;42.058;25.586;2023-12-28T01:53:57;101678.84;;;5.15;100.00
7832;BME280;3961;42.058;25.586;2023-12-28T01:56:23;101691.97;;;5.00;100.00
7832;BME280;3961;42.058;25.586;2023-12-28T01:58:49;101685.31;;;4.94;100.00
7832;BME280;3961;42.058;25.586;2023-12-28T02:01:15;101668.38;;;4.92;100.00
7832;BME280;3961;42.058;25.586;2023-12-28T02:03:42;101686.03;;;4.96;100.00
7832;BME280;3961;42.058;25.586;2023-12-28T02:06:07;101680.75;;;4.95;100.00
7832;BME280;3961;42.058;25.586;2023-12-28T02:08:33;101680.34;;;4.90;100.00
7832;BME280;3961;42.058;25.586;2023-12-28T02:10:59;101682.31;;;4.88;100.00
7832;BME280;3961;42.058;25.586;2023-12-28T02:13:25;101683.75;;;4.82;100.00
7832;BME280;3961;42.058;25.586;2023-12-28T02:16:09;101684.94;;;4.51;100.00
7832;BME280;3961;42.058;25.586;2023-12-28T02:18:39;101678.00;;;4.39;100.00
7832;BME280;3961;42.058;25.586;2023-12-28T02:21:09;101691.50;;;4.48;100.00
7832;BME280;3961;42.058;25.586;2023-12-28T02:23:34;101694.19;;;4.67;100.00
7832;BME280;3961;42.058;25.586;2023-12-28T02:26:00;101702.00;;;4.61;100.00
7832;BME280;3961;42.058;25.586;2023-12-28T02:28:26;101697.28;;;4.73;100.00
7832;BME280;3961;42.058;25.586;2023-12-28T02:30:52;101695.75;;;4.70;100.00
7832;BME280;3961;42.058;25.586;2023-12-28T02:33:38;101697.59;;;4.41;98.87
7832;BME280;3961;42.058;25.586;2023-12-28T02:36:10;101709.97;;;4.53;99.97
7832;BME280;3961;42.058;25.586;2023-12-28T02:38:37;101710.97;;;4.52;100.00
7832;BME280;3961;42.058;25.586;2023-12-28T02:41:04;101716.94;;;4.46;100.00
7832;BME280;3961;42.058;25.586;2023-12-28T02:43:30;101710.81;;;4.53;100.00
7832;BME280;3961;42.058;25.586;2023-12-28T02:45:57;101716.50;;;4.50;99.79
7832;BME280;3961;42.058;25.586;2023-12-28T02:48:23;101717.06;;;4.44;99.11
7832;BME280;3961;42.058;25.586;2023-12-28T02:50:48;101710.50;;;4.18;99.41
7832;BME280;3961;42.058;25.586;2023-12-28T02:53:14;101712.66;;;4.14;100.00
7832;BME280;3961;42.058;25.586;2023-12-28T02:55:39;101718.06;;;4.14;100.00
7832;BME280;3961;42.058;25.586;2023-12-28T02:58:05;101711.50;;;4.07;100.00
7832;BME280;3961;42.058;25.586;2023-12-28T03:00:30;101719.59;;;4.07;100.00
7832;BME280;3961;42.058;25.586;2023-12-28T03:02:56;101707.69;;;4.00;100.00
7832;BME280;3961;42.058;25.586;2023-12-28T03:05:22;101704.81;;;3.92;100.00
7832;BME280;3961;42.058;25.586;2023-12-28T03:07:47;101703.94;;;3.92;100.00
7832;BME280;3961;42.058;25.586;2023-12-28T03:10:13;101712.88;;;3.82;100.00
7832;BME280;3961;42.058;25.586;2023-12-28T03:12:38;101708.72;;;3.59;100.00
7832;BME280;3961;42.058;25.586;2023-12-28T03:15:04;101697.84;;;3.40;100.00
7832;BME280;3961;42.058;25.586;2023-12-28T03:17:30;101720.16;;;3.42;100.00
7832;BME280;3961;42.058;25.586;2023-12-28T03:19:58;101712.47;;;3.37;100.00
7832;BME280;3961;42.058;25.586;2023-12-28T03:22:24;101718.72;;;3.38;100.00
7832;BME280;3961;42.058;25.586;2023-12-28T03:24:49;101713.47;;;3.36;100.00
7832;BME280;3961;42.058;25.586;2023-12-28T03:27:15;101725.94;;;3.37;100.00
7832;BME280;3961;42.058;25.586;2023-12-28T03:29:41;101722.63;;;3.24;100.00
7832;BME280;3961;42.058;25.586;2023-12-28T03:32:10;101726.66;;;3.39;100.00
7832;BME280;3961;42.058;25.586;2023-12-28T03:34:36;101725.25;;;3.45;100.00
7832;BME280;3961;42.058;25.586;2023-12-28T03:37:01;101719.28;;;3.42;100.00
7832;BME280;3961;42.058;25.586;2023-12-28T03:39:27;101717.72;;;3.39;100.00
7832;BME280;3961;42.058;25.586;2023-12-28T03:41:53;101712.88;;;3.33;100.00
7832;BME280;3961;42.058;25.586;2023-12-28T03:44:22;101709.78;;;3.37;100.00
7832;BME280;3961;42.058;25.586;2023-12-28T03:46:48;101706.78;;;3.40;100.00
7832;BME280;3961;42.058;25.586;2023-12-28T03:49:18;101711.75;;;3.35;100.00
7832;BME280;3961;42.058;25.586;2023-12-28T03:51:44;101717.09;;;3.26;100.00
7832;BME280;3961;42.058;25.586;2023-12-28T03:54:10;101707.34;;;3.34;100.00
7832;BME280;3961;42.058;25.586;2023-12-28T03:56:35;101709.00;;;3.26;100.00
7832;BME280;3961;42.058;25.586;2023-12-28T03:59:02;101704.31;;;3.28;100.00
7832;BME280;3961;42.058;25.586;2023-12-28T04:01:28;101698.25;;;3.35;100.00
7832;BME280;3961;42.058;25.586;2023-12-28T04:03:54;101699.44;;;3.12;100.00
7832;BME280;3961;42.058;25.586;2023-12-28T04:06:19;101700.69;;;3.08;100.00
7832;BME280;3961;42.058;25.586;2023-12-28T04:08:45;101706.41;;;3.15;100.00
7832;BME280;3961;42.058;25.586;2023-12-28T04:11:10;101706.44;;;3.24;100.00
7832;BME280;3961;42.058;25.586;2023-12-28T04:13:36;101706.13;;;3.48;100.00
7832;BME280;3961;42.058;25.586;2023-12-28T04:16:02;101701.63;;;3.58;100.00
7832;BME280;3961;42.058;25.586;2023-12-28T04:18:27;101706.97;;;3.49;100.00
7832;BME280;3961;42.058;25.586;2023-12-28T04:20:53;101712.53;;;3.57;100.00
7832;BME280;3961;42.058;25.586;2023-12-28T04:23:19;101719.28;;;3.42;100.00
7832;BME280;3961;42.058;25.586;2023-12-28T04:25:44;101721.50;;;3.67;100.00
7832;BME280;3961;42.058;25.586;2023-12-28T04:28:10;101717.97;;;3.76;100.00
7832;BME280;3961;42.058;25.586;2023-12-28T04:30:35;101707.44;;;3.63;100.00
7832;BME280;3961;42.058;25.586;2023-12-28T04:33:01;101714.56;;;3.64;100.00
7832;BME280;3961;42.058;25.586;2023-12-28T04:35:27;101708.00;;;3.57;100.00
7832;BME280;3961;42.058;25.586;2023-12-28T04:37:54;101729.19;;;3.71;100.00
7832;BME280;3961;42.058;25.586;2023-12-28T04:40:19;101728.06;;;3.74;100.00
7832;BME280;3961;42.058;25.586;2023-12-28T04:42:45;101686.53;;;3.46;100.00
7832;BME280;3961;42.058;25.586;2023-12-28T04:45:10;101731.00;;;3.71;100.00
7832;BME280;3961;42.058;25.586;2023-12-28T04:47:36;101727.28;;;3.53;100.00
7832;BME280;3961;42.058;25.586;2023-12-28T04:50:05;101714.13;;;3.59;100.00
7832;BME280;3961;42.058;25.586;2023-12-28T04:52:32;101714.66;;;3.53;100.00
7832;BME280;3961;42.058;25.586;2023-12-28T04:54:57;101727.72;;;3.58;100.00
7832;BME280;3961;42.058;25.586;2023-12-28T04:57:23;101723.38;;;3.76;100.00
7832;BME280;3961;42.058;25.586;2023-12-28T04:59:53;101722.66;;;3.64;100.00
7832;BME280;3961;42.058;25.586;2023-12-28T05:02:18;101733.28;;;3.75;100.00
7832;BME280;3961;42.058;25.586;2023-12-28T05:04:44;101730.31;;;3.69;100.00
7832;BME280;3961;42.058;25.586;2023-12-28T05:07:10;101732.31;;;3.76;100.00
7832;BME280;3961;42.058;25.586;2023-12-28T05:09:35;101738.13;;;3.72;100.00
7832;BME280;3961;42.058;25.586;2023-12-28T05:12:01;101733.59;;;3.72;100.00
7832;BME280;3961;42.058;25.586;2023-12-28T05:14:27;101738.84;;;3.74;100.00
7832;BME280;3961;42.058;25.586;2023-12-28T05:16:53;101733.47;;;3.74;100.00
7832;BME280;3961;42.058;25.586;2023-12-28T05:19:18;101741.00;;;3.80;100.00
7832;BME280;3961;42.058;25.586;2023-12-28T05:21:44;101734.75;;;3.79;100.00
7832;BME280;3961;42.058;25.586;2023-12-28T05:24:09;101741.13;;;3.69;100.00
7832;BME280;3961;42.058;25.586;2023-12-28T05:26:35;101728.16;;;3.63;100.00
7832;BME280;3961;42.058;25.586;2023-12-28T05:29:01;101728.72;;;3.57;100.00
7832;BME280;3961;42.058;25.586;2023-12-28T05:31:26;101728.25;;;3.52;100.00
7832;BME280;3961;42.058;25.586;2023-12-28T05:33:52;101729.69;;;3.56;100.00
7832;BME280;3961;42.058;25.586;2023-12-28T05:36:17;101732.16;;;3.68;100.00
7832;BME280;3961;42.058;25.586;2023-12-28T05:38:43;101718.25;;;3.63;100.00
7832;BME280;3961;42.058;25.586;2023-12-28T05:41:11;101723.78;;;3.71;100.00
7832;BME280;3961;42.058;25.586;2023-12-28T05:43:37;101733.97;;;3.58;100.00
7832;BME280;3961;42.058;25.586;2023-12-28T05:46:04;101735.69;;;3.29;100.00
7832;BME280;3961;42.058;25.586;2023-12-28T05:48:29;101743.72;;;3.19;100.00
7832;BME280;3961;42.058;25.586;2023-12-28T05:50:57;101722.53;;;3.05;100.00
7832;BME280;3961;42.058;25.586;2023-12-28T05:53:23;101740.78;;;3.02;100.00
7832;BME280;3961;42.058;25.586;2023-12-28T05:55:49;101746.38;;;3.10;100.00
7832;BME280;3961;42.058;25.586;2023-12-28T05:58:14;101748.97;;;3.21;100.00
7832;BME280;3961;42.058;25.586;2023-12-28T06:00:39;101746.47;;;3.29;100.00
7832;BME280;3961;42.058;25.586;2023-12-28T06:03:05;101747.31;;;3.29;100.00
7832;BME280;3961;42.058;25.586;2023-12-28T06:05:31;101752.66;;;3.20;100.00
7832;BME280;3961;42.058;25.586;2023-12-28T06:07:56;101730.00;;;3.22;100.00
7832;BME280;3961;42.058;25.586;2023-12-28T06:10:22;101748.75;;;3.33;100.00
7832;BME280;3961;42.058;25.586;2023-12-28T06:12:49;101750.50;;;3.44;100.00
7832;BME280;3961;42.058;25.586;2023-12-28T06:15:14;101751.41;;;3.54;100.00
7832;BME280;3961;42.058;25.586;2023-12-28T06:17:40;101766.88;;;3.52;100.00
7832;BME280;3961;42.058;25.586;2023-12-28T06:20:06;101729.84;;;3.24;100.00
7832;BME280;3961;42.058;25.586;2023-12-28T06:22:31;101762.88;;;3.47;100.00
7832;BME280;3961;42.058;25.586;2023-12-28T06:24:57;101735.34;;;3.43;100.00
7832;BME280;3961;42.058;25.586;2023-12-28T06:27:22;101754.50;;;3.50;100.00
7832;BME280;3961;42.058;25.586;2023-12-28T06:29:51;101761.94;;;3.67;100.00
7832;BME280;3961;42.058;25.586;2023-12-28T06:32:17;101762.41;;;3.72;100.00
7832;BME280;3961;42.058;25.586;2023-12-28T06:34:43;101765.97;;;3.82;100.00
7832;BME280;3961;42.058;25.586;2023-12-28T06:37:08;101777.38;;;3.86;100.00
7832;BME280;3961;42.058;25.586;2023-12-28T06:39:33;101771.81;;;3.87;100.00
7832;BME280;3961;42.058;25.586;2023-12-28T06:41:59;101767.59;;;3.94;100.00
7832;BME280;3961;42.058;25.586;2023-12-28T06:44:24;101769.88;;;3.99;100.00
7832;BME280;3961;42.058;25.586;2023-12-28T06:46:50;101769.88;;;3.99;100.00
7832;BME280;3961;42.058;25.586;2023-12-28T06:49:16;101771.72;;;4.08;100.00
7832;BME280;3961;42.058;25.586;2023-12-28T06:51:41;101777.16;;;4.17;100.00
7832;BME280;3961;42.058;25.586;2023-12-28T06:54:09;101787.22;;;6.32;100.00
7832;BME280;3961;42.058;25.586;2023-12-28T06:56:34;101776.97;;;8.90;86.17
7832;BME280;3961;42.058;25.586;2023-12-28T06:59:00;101782.69;;;7.63;83.05
7832;BME280;3961;42.058;25.586;2023-12-28T07:01:25;101785.41;;;6.94;85.69
7832;BME280;3961;42.058;25.586;2023-12-28T07:03:51;101777.63;;;6.38;88.77
7832;BME280;3961;42.058;25.586;2023-12-28T07:06:17;101775.28;;;5.98;92.10
7832;BME280;3961;42.058;25.586;2023-12-28T07:08:42;101782.47;;;5.79;94.15
7832;BME280;3961;42.058;25.586;2023-12-28T07:11:11;101775.41;;;5.69;96.24
7832;BME280;3961;42.058;25.586;2023-12-28T07:13:37;101785.25;;;5.70;95.73
7832;BME280;3961;42.058;25.586;2023-12-28T07:16:03;101775.13;;;6.26;100.00
7832;BME280;3961;42.058;25.586;2023-12-28T07:18:28;101788.69;;;5.62;95.56
7832;BME280;3961;42.058;25.586;2023-12-28T07:20:54;101795.34;;;6.05;96.88
7832;BME280;3961;42.058;25.586;2023-12-28T07:23:19;101791.31;;;5.81;95.15
7832;BME280;3961;42.058;25.586;2023-12-28T07:25:45;101796.47;;;5.75;96.60
7832;BME280;3961;42.058;25.586;2023-12-28T07:28:10;101796.13;;;5.87;96.85
7832;BME280;3961;42.058;25.586;2023-12-28T07:30:37;101801.63;;;6.05;95.68
7832;BME280;3961;42.058;25.586;2023-12-28T07:33:03;101796.66;;;6.28;94.15
7832;BME280;3961;42.058;25.586;2023-12-28T07:35:28;101800.34;;;7.15;91.06
7832;BME280;3961;42.058;25.586;2023-12-28T07:37:54;101799.97;;;7.10;91.79
7832;BME280;3961;42.058;25.586;2023-12-28T07:40:19;101755.84;;;7.00;94.23
7832;BME280;3961;42.058;25.586;2023-12-28T07:42:45;101791.09;;;7.52;95.91
7832;BME280;3961;42.058;25.586;2023-12-28T07:45:11;101801.84;;;7.61;93.09
7832;BME280;3961;42.058;25.586;2023-12-28T07:47:36;101788.97;;;7.63;93.30
7832;BME280;3961;42.058;25.586;2023-12-28T07:50:02;101806.34;;;7.79;90.79
7832;BME280;3961;42.058;25.586;2023-12-28T07:52:28;101815.88;;;7.83;91.13
7832;BME280;3961;42.058;25.586;2023-12-28T07:54:54;101800.72;;;7.72;91.58
7832;BME280;3961;42.058;25.586;2023-12-28T07:57:20;101805.38;;;7.88;91.22
7832;BME280;3961;42.058;25.586;2023-12-28T07:59:46;101795.38;;;7.88;90.46
7832;BME280;3961;42.058;25.586;2023-12-28T08:02:11;101766.94;;;7.67;91.92
7832;BME280;3961;42.058;25.586;2023-12-28T08:04:37;101808.22;;;8.12;90.13
7832;BME280;3961;42.058;25.586;2023-12-28T08:07:02;101807.19;;;8.13;90.56
7832;BME280;3961;42.058;25.586;2023-12-28T08:09:29;101804.00;;;8.26;89.25
7832;BME280;3961;42.058;25.586;2023-12-28T08:11:55;101801.38;;;8.42;89.68
7832;BME280;3961;42.058;25.586;2023-12-28T08:14:21;101798.84;;;8.48;88.18
7832;BME280;3961;42.058;25.586;2023-12-28T08:16:46;101806.50;;;8.45;89.25
7832;BME280;3961;42.058;25.586;2023-12-28T08:19:12;101801.44;;;8.66;87.95
7832;BME280;3961;42.058;25.586;2023-12-28T08:21:37;101801.09;;;8.69;88.76
7832;BME280;3961;42.058;25.586;2023-12-28T08:24:03;101792.97;;;8.77;88.05
7832;BME280;3961;42.058;25.586;2023-12-28T08:26:29;101795.84;;;9.08;86.78
7832;BME280;3961;42.058;25.586;2023-12-28T08:28:54;101805.34;;;9.20;85.50
7832;BME280;3961;42.058;25.586;2023-12-28T08:31:20;101800.41;;;9.32;84.12
7832;BME280;3961;42.058;25.586;2023-12-28T08:33:45;101794.94;;;9.48;84.00
7832;BME280;3961;42.058;25.586;2023-12-28T08:36:11;101793.25;;;9.47;82.30
7832;BME280;3961;42.058;25.586;2023-12-28T08:38:38;101785.25;;;9.54;81.71
7832;BME280;3961;42.058;25.586;2023-12-28T08:41:03;101782.97;;;9.73;82.06
7832;BME280;3961;42.058;25.586;2023-12-28T08:43:35;101778.31;;;9.90;81.68
7832;BME280;3961;42.058;25.586;2023-12-28T08:46:01;101781.34;;;9.95;80.49
7832;BME280;3961;42.058;25.586;2023-12-28T08:48:27;101774.78;;;10.21;79.10
7832;BME280;3961;42.058;25.586;2023-12-28T08:50:52;101771.59;;;10.17;80.45
7832;BME280;3961;42.058;25.586;2023-12-28T08:53:18;101771.06;;;10.13;82.00
7832;BME280;3961;42.058;25.586;2023-12-28T08:55:43;101776.31;;;10.23;80.95
7832;BME280;3961;42.058;25.586;2023-12-28T08:58:09;101763.00;;;10.28;79.56
7832;BME280;3961;42.058;25.586;2023-12-28T09:00:34;101763.31;;;10.33;80.21
7832;BME280;3961;42.058;25.586;2023-12-28T09:03:00;101769.94;;;10.39;77.95
7832;BME280;3961;42.058;25.586;2023-12-28T09:05:27;101709.06;;;10.15;79.21
7832;BME280;3961;42.058;25.586;2023-12-28T09:07:53;101754.06;;;10.42;77.92
7832;BME280;3961;42.058;25.586;2023-12-28T09:10:18;101748.97;;;10.39;78.11
7832;BME280;3961;42.058;25.586;2023-12-28T09:12:43;101754.97;;;10.57;77.23
7832;BME280;3961;42.058;25.586;2023-12-28T09:15:09;101738.88;;;10.71;77.28
7832;BME280;3961;42.058;25.586;2023-12-28T09:17:36;101737.22;;;10.84;76.90
7832;BME280;3961;42.058;25.586;2023-12-28T09:20:02;101740.66;;;11.01;75.96
7832;BME280;3961;42.058;25.586;2023-12-28T09:22:28;101729.69;;;11.24;74.83
7832;BME280;3961;42.058;25.586;2023-12-28T09:24:54;101718.16;;;11.36;75.10
7832;BME280;3961;42.058;25.586;2023-12-28T09:27:19;101716.50;;;11.42;73.51
7832;BME280;3961;42.058;25.586;2023-12-28T09:29:45;101712.97;;;11.41;72.84
7832;BME280;3961;42.058;25.586;2023-12-28T09:32:11;101704.50;;;11.36;73.09
7832;BME280;3961;42.058;25.586;2023-12-28T09:34:36;101694.59;;;11.21;73.39
7832;BME280;3961;42.058;25.586;2023-12-28T09:37:02;101690.91;;;11.28;79.40
7832;BME280;3961;42.058;25.586;2023-12-28T09:39:28;101693.06;;;11.18;73.74
7832;BME280;3961;42.058;25.586;2023-12-28T09:42:06;101674.34;;;11.59;81.37
7832;BME280;3961;42.058;25.586;2023-12-28T09:44:36;101672.91;;;11.63;72.84
7832;BME280;3961;42.058;25.586;2023-12-28T09:47:04;101669.09;;;11.58;72.67
7832;BME280;3961;42.058;25.586;2023-12-28T09:49:32;101670.56;;;11.75;71.72
7832;BME280;3961;42.058;25.586;2023-12-28T09:51:59;101664.34;;;11.66;71.69
7832;BME280;3961;42.058;25.586;2023-12-28T09:54:25;101666.72;;;11.40;73.70
7832;BME280;3961;42.058;25.586;2023-12-28T09:56:51;101666.81;;;11.61;72.51
7832;BME280;3961;42.058;25.586;2023-12-28T09:59:18;101663.59;;;11.72;71.99
7832;BME280;3961;42.058;25.586;2023-12-28T10:01:45;101659.06;;;11.65;72.30
7832;BME280;3961;42.058;25.586;2023-12-28T10:04:12;101654.72;;;11.70;72.23
7832;BME280;3961;42.058;25.586;2023-12-28T10:06:39;101650.91;;;12.01;72.04
7832;BME280;3961;42.058;25.586;2023-12-28T10:09:06;101645.97;;;12.11;70.09
7832;BME280;3961;42.058;25.586;2023-12-28T10:11:33;101645.53;;;12.07;70.07
7832;BME280;3961;42.058;25.586;2023-12-28T10:13:58;101645.69;;;12.20;70.00
7832;BME280;3961;42.058;25.586;2023-12-28T10:16:24;101634.94;;;12.40;70.34
7832;BME280;3961;42.058;25.586;2023-12-28T10:18:50;101630.56;;;12.67;69.64
7832;BME280;3961;42.058;25.586;2023-12-28T10:21:15;101608.50;;;12.75;68.11
7832;BME280;3961;42.058;25.586;2023-12-28T10:23:41;101618.16;;;12.99;66.53
7832;BME280;3961;42.058;25.586;2023-12-28T10:26:08;101610.63;;;13.07;67.89
7832;BME280;3961;42.058;25.586;2023-12-28T10:28:37;101606.94;;;13.15;64.92
7832;BME280;3961;42.058;25.586;2023-12-28T10:31:05;101591.41;;;13.29;64.50
7832;BME280;3961;42.058;25.586;2023-12-28T10:33:35;101589.75;;;13.34;63.79
7832;BME280;3961;42.058;25.586;2023-12-28T10:36:07;101593.16;;;13.36;62.56
7832;BME280;3961;42.058;25.586;2023-12-28T10:38:37;101586.66;;;13.50;63.13
7832;BME280;3961;42.058;25.586;2023-12-28T10:41:13;101587.31;;;13.59;62.19
7832;BME280;3961;42.058;25.586;2023-12-28T10:43:46;101577.00;;;13.61;62.36
7832;BME280;3961;42.058;25.586;2023-12-28T10:46:25;101549.38;;;13.56;62.02
7832;BME280;3961;42.058;25.586;2023-12-28T10:48:56;101568.00;;;13.80;61.17
7832;BME280;3961;42.058;25.586;2023-12-28T10:51:24;101560.41;;;13.76;61.57
7832;BME280;3961;42.058;25.586;2023-12-28T10:56:45;101556.63;;;13.83;61.26
7832;BME280;3961;42.058;25.586;2023-12-28T11:02:32;101528.56;;;13.81;59.24
7832;BME280;3961;42.058;25.586;2023-12-28T11:05:02;101523.97;;;13.95;58.71
7832;BME280;3961;42.058;25.586;2023-12-28T11:07:30;101517.03;;;14.06;58.45
7832;BME280;3961;42.058;25.586;2023-12-28T11:10:00;101515.56;;;14.16;57.93
7832;BME280;3961;42.058;25.586;2023-12-28T11:12:27;101508.59;;;14.27;57.94
7832;BME280;3961;42.058;25.586;2023-12-28T11:14:54;101510.47;;;14.33;57.19
7832;BME280;3961;42.058;25.586;2023-12-28T11:17:21;101496.75;;;14.33;56.62
7832;BME280;3961;42.058;25.586;2023-12-28T11:19:51;101494.47;;;14.43;55.49
7832;BME280;3961;42.058;25.586;2023-12-28T11:22:19;101494.44;;;14.23;53.90
7832;BME280;3961;42.058;25.586;2023-12-28T11:24:46;101480.19;;;16.80;71.69
7832;BME280;3961;42.058;25.586;2023-12-28T11:27:11;101473.19;;;17.62;60.45
7832;BME280;3961;42.058;25.586;2023-12-28T11:29:38;101469.00;;;18.01;52.93
7832;BME280;3961;42.058;25.586;2023-12-28T11:32:04;101469.47;;;17.87;52.28
7832;BME280;3961;42.058;25.586;2023-12-28T11:34:31;101470.34;;;17.39;49.09
7832;BME280;3961;42.058;25.586;2023-12-28T11:37:00;101471.66;;;17.66;57.46
7832;BME280;3961;42.058;25.586;2023-12-28T11:39:35;101457.75;;;17.43;52.76
7832;BME280;3961;42.058;25.586;2023-12-28T11:42:08;101459.13;;;17.22;49.53
7832;BME280;3961;42.058;25.586;2023-12-28T11:44:41;101457.63;;;17.38;55.99
7832;BME280;3961;42.058;25.586;2023-12-28T11:47:22;101457.81;;;17.85;51.08
7832;BME280;3961;42.058;25.586;2023-12-28T11:49:48;101449.56;;;17.96;46.39
7832;BME280;3961;42.058;25.586;2023-12-28T11:52:24;101434.72;;;17.38;48.02
7832;BME280;3961;42.058;25.586;2023-12-28T11:54:50;101446.81;;;17.07;47.36
7832;BME280;3961;42.058;25.586;2023-12-28T11:57:16;101449.25;;;16.78;47.75
7832;BME280;3961;42.058;25.586;2023-12-28T11:59:42;101424.66;;;16.40;48.82
7832;BME280;3961;42.058;25.586;2023-12-28T12:02:10;101436.94;;;16.20;48.43
7832;BME280;3961;42.058;25.586;2023-12-28T12:04:36;101443.25;;;16.02;49.12
7832;BME280;3961;42.058;25.586;2023-12-28T12:07:03;101414.72;;;17.60;60.89
7832;BME280;3961;42.058;25.586;2023-12-28T12:09:31;101424.16;;;17.35;48.70
7832;BME280;3961;42.058;25.586;2023-12-28T12:12:03;101426.69;;;17.06;49.18
7832;BME280;3961;42.058;25.586;2023-12-28T12:14:30;101416.84;;;16.80;49.35
7832;BME280;3961;42.058;25.586;2023-12-28T12:16:56;101419.00;;;16.35;48.16
7832;BME280;3961;42.058;25.586;2023-12-28T12:19:25;101415.00;;;15.88;49.16
7832;BME280;3961;42.058;25.586;2023-12-28T12:21:57;101417.69;;;15.70;50.24
7832;BME280;3961;42.058;25.586;2023-12-28T12:24:23;101410.56;;;15.62;51.49
7832;BME280;3961;42.058;25.586;2023-12-28T12:26:50;101412.66;;;15.60;52.18
7832;BME280;3961;42.058;25.586;2023-12-28T12:29:15;101404.00;;;15.63;51.79
7832;BME280;3961;42.058;25.586;2023-12-28T12:31:41;101396.84;;;15.49;51.66
7832;BME280;3961;42.058;25.586;2023-12-28T12:34:12;101411.94;;;15.40;52.08
7832;BME280;3961;42.058;25.586;2023-12-28T12:36:39;101411.03;;;15.15;53.11
7832;BME280;3961;42.058;25.586;2023-12-28T12:39:04;101409.63;;;15.06;53.16
7832;BME280;3961;42.058;25.586;2023-12-28T12:41:34;101406.63;;;15.07;53.67
7832;BME280;3961;42.058;25.586;2023-12-28T12:44:00;101407.72;;;15.06;53.32
7832;BME280;3961;42.058;25.586;2023-12-28T12:46:26;101406.81;;;15.12;53.20
7832;BME280;3961;42.058;25.586;2023-12-28T12:48:58;101411.69;;;15.10;53.77
7832;BME280;3961;42.058;25.586;2023-12-28T12:51:25;101409.81;;;15.04;53.72
7832;BME280;3961;42.058;25.586;2023-12-28T12:53:50;101402.81;;;15.15;53.54
7832;BME280;3961;42.058;25.586;2023-12-28T12:56:20;101400.28;;;15.07;53.91
7832;BME280;3961;42.058;25.586;2023-12-28T12:58:46;101395.66;;;14.63;55.10
7832;BME280;3961;42.058;25.586;2023-12-28T13:01:12;101385.34;;;14.45;56.15
7832;BME280;3961;42.058;25.586;2023-12-28T13:03:37;101384.09;;;14.41;57.16
7832;BME280;3961;42.058;25.586;2023-12-28T13:06:04;101383.00;;;15.38;68.37